sensor_id;sensor_type;location;lat;lon;timestamp;P1;durP1;ratioP1;P2;durP2;ratioP2
3177;SDS011;38141;42.666;23.344;2023-08-07T00:00:11;3.73;;;2.20;;
3177;SDS011;38141;42.666;23.344;2023-08-07T00:02:38;2.10;;;1.90;;
3177;SDS011;38141;42.666;23.344;2023-08-07T00:05:05;4.20;;;2.00;;
3177;SDS011;38141;42.666;23.344;2023-08-07T00:07:31;2.30;;;2.10;;
3177;SDS011;38141;42.666;23.344;2023-08-07T00:09:58;1.80;;;1.70;;
3177;SDS011;38141;42.666;23.344;2023-08-07T00:12:26;1.70;;;1.60;;
3177;SDS011;38141;42.666;23.344;2023-08-07T00:14:54;2.33;;;1.90;;
3177;SDS011;38141;42.666;23.344;2023-08-07T00:17:20;2.10;;;1.90;;
3177;SDS011;38141;42.666;23.344;2023-08-07T00:19:47;2.27;;;2.07;;
3177;SDS011;38141;42.666;23.344;2023-08-07T00:22:13;2.77;;;2.20;;
3177;SDS011;38141;42.666;23.344;2023-08-07T00:24:39;3.27;;;2.40;;
3177;SDS011;38141;42.666;23.344;2023-08-07T00:27:06;2.53;;;2.33;;
3177;SDS011;38141;42.666;23.344;2023-08-07T00:29:35;2.57;;;2.30;;
3177;SDS011;38141;42.666;23.344;2023-08-07T00:32:03;2.40;;;2.20;;
3177;SDS011;38141;42.666;23.344;2023-08-07T00:34:29;3.37;;;2.43;;
3177;SDS011;38141;42.666;23.344;2023-08-07T00:36:56;2.93;;;2.60;;
3177;SDS011;38141;42.666;23.344;2023-08-07T00:39:22;3.03;;;2.70;;
3177;SDS011;38141;42.666;23.344;2023-08-07T00:41:49;3.43;;;3.13;;
3177;SDS011;38141;42.666;23.344;2023-08-07T00:44:15;3.40;;;2.70;;
3177;SDS011;38141;42.666;23.344;2023-08-07T00:46:42;3.60;;;2.73;;
3177;SDS011;38141;42.666;23.344;2023-08-07T00:49:11;2.90;;;2.60;;
3177;SDS011;38141;42.666;23.344;2023-08-07T00:51:38;2.80;;;2.60;;
3177;SDS011;38141;42.666;23.344;2023-08-07T00:54:05;3.20;;;2.90;;
3177;SDS011;38141;42.666;23.344;2023-08-07T00:56:32;3.50;;;2.90;;
3177;SDS011;38141;42.666;23.344;2023-08-07T00:58:58;3.50;;;3.20;;
3177;SDS011;38141;42.666;23.344;2023-08-07T01:01:25;3.20;;;2.70;;
3177;SDS011;38141;42.666;23.344;2023-08-07T01:03:52;3.80;;;3.40;;
3177;SDS011;38141;42.666;23.344;2023-08-07T01:06:20;9.93;;;6.63;;
3177;SDS011;38141;42.666;23.344;2023-08-07T01:08:46;10.60;;;7.47;;
3177;SDS011;38141;42.666;23.344;2023-08-07T01:11:19;4.47;;;4.03;;
3177;SDS011;38141;42.666;23.344;2023-08-07T01:13:49;23.57;;;14.60;;
3177;SDS011;38141;42.666;23.344;2023-08-07T01:16:17;4.40;;;3.83;;
3177;SDS011;38141;42.666;23.344;2023-08-07T01:18:44;4.33;;;3.80;;
3177;SDS011;38141;42.666;23.344;2023-08-07T01:21:16;3.73;;;3.30;;
3177;SDS011;38141;42.666;23.344;2023-08-07T01:23:44;5.60;;;3.70;;
3177;SDS011;38141;42.666;23.344;2023-08-07T01:26:11;4.57;;;4.10;;
3177;SDS011;38141;42.666;23.344;2023-08-07T01:28:38;6.13;;;3.97;;
3177;SDS011;38141;42.666;23.344;2023-08-07T01:31:08;5.37;;;3.40;;
3177;SDS011;38141;42.666;23.344;2023-08-07T01:33:38;3.83;;;3.30;;
3177;SDS011;38141;42.666;23.344;2023-08-07T01:36:06;4.40;;;3.70;;
3177;SDS011;38141;42.666;23.344;2023-08-07T01:38:33;5.20;;;3.80;;
3177;SDS011;38141;42.666;23.344;2023-08-07T01:41:01;5.03;;;3.70;;
3177;SDS011;38141;42.666;23.344;2023-08-07T01:43:28;4.80;;;3.90;;
3177;SDS011;38141;42.666;23.344;2023-08-07T01:45:54;4.73;;;3.70;;
3177;SDS011;38141;42.666;23.344;2023-08-07T01:48:21;4.47;;;3.60;;
3177;SDS011;38141;42.666;23.344;2023-08-07T01:50:47;5.10;;;3.90;;
3177;SDS011;38141;42.666;23.344;2023-08-07T01:53:14;4.87;;;3.67;;
3177;SDS011;38141;42.666;23.344;2023-08-07T01:55:40;4.10;;;3.60;;
3177;SDS011;38141;42.666;23.344;2023-08-07T01:58:08;3.93;;;3.43;;
3177;SDS011;38141;42.666;23.344;2023-08-07T02:00:35;4.27;;;3.87;;
3177;SDS011;38141;42.666;23.344;2023-08-07T02:03:01;6.37;;;5.77;;
3177;SDS011;38141;42.666;23.344;2023-08-07T02:05:28;4.23;;;3.63;;
3177;SDS011;38141;42.666;23.344;2023-08-07T02:07:54;4.67;;;4.17;;
3177;SDS011;38141;42.666;23.344;2023-08-07T02:10:22;4.40;;;3.90;;
3177;SDS011;38141;42.666;23.344;2023-08-07T02:12:49;4.87;;;4.10;;
3177;SDS011;38141;42.666;23.344;2023-08-07T02:15:17;6.13;;;4.70;;
3177;SDS011;38141;42.666;23.344;2023-08-07T02:17:44;5.73;;;4.20;;
3177;SDS011;38141;42.666;23.344;2023-08-07T02:20:11;4.50;;;3.93;;
3177;SDS011;38141;42.666;23.344;2023-08-07T02:22:37;5.30;;;4.47;;
3177;SDS011;38141;42.666;23.344;2023-08-07T02:25:04;4.97;;;3.90;;
3177;SDS011;38141;42.666;23.344;2023-08-07T02:27:30;6.20;;;4.37;;
3177;SDS011;38141;42.666;23.344;2023-08-07T02:29:57;4.60;;;4.20;;
3177;SDS011;38141;42.666;23.344;2023-08-07T02:32:25;7.07;;;4.33;;
3177;SDS011;38141;42.666;23.344;2023-08-07T02:34:51;5.43;;;4.00;;
3177;SDS011;38141;42.666;23.344;2023-08-07T02:37:18;6.80;;;4.60;;
3177;SDS011;38141;42.666;23.344;2023-08-07T02:39:45;5.43;;;4.13;;
3177;SDS011;38141;42.666;23.344;2023-08-07T02:42:12;6.03;;;4.80;;
3177;SDS011;38141;42.666;23.344;2023-08-07T02:44:38;4.90;;;4.30;;
3177;SDS011;38141;42.666;23.344;2023-08-07T02:47:05;4.63;;;4.13;;
3177;SDS011;38141;42.666;23.344;2023-08-07T02:49:33;5.20;;;4.17;;
3177;SDS011;38141;42.666;23.344;2023-08-07T02:51:59;5.23;;;4.03;;
3177;SDS011;38141;42.666;23.344;2023-08-07T02:54:26;4.63;;;4.13;;
3177;SDS011;38141;42.666;23.344;2023-08-07T02:56:52;4.87;;;4.40;;
3177;SDS011;38141;42.666;23.344;2023-08-07T02:59:19;5.57;;;4.73;;
3177;SDS011;38141;42.666;23.344;2023-08-07T03:01:45;5.27;;;4.10;;
3177;SDS011;38141;42.666;23.344;2023-08-07T03:04:12;4.93;;;4.23;;
3177;SDS011;38141;42.666;23.344;2023-08-07T03:06:40;7.30;;;4.53;;
3177;SDS011;38141;42.666;23.344;2023-08-07T03:09:06;5.23;;;4.70;;
3177;SDS011;38141;42.666;23.344;2023-08-07T03:11:33;8.37;;;5.63;;
3177;SDS011;38141;42.666;23.344;2023-08-07T03:13:59;5.80;;;4.73;;
3177;SDS011;38141;42.666;23.344;2023-08-07T03:16:26;6.73;;;4.70;;
3177;SDS011;38141;42.666;23.344;2023-08-07T03:18:52;5.53;;;4.73;;
3177;SDS011;38141;42.666;23.344;2023-08-07T03:21:18;4.80;;;4.30;;
3177;SDS011;38141;42.666;23.344;2023-08-07T03:23:46;4.90;;;4.40;;
3177;SDS011;38141;42.666;23.344;2023-08-07T03:26:13;5.30;;;4.57;;
3177;SDS011;38141;42.666;23.344;2023-08-07T03:28:39;7.00;;;4.73;;
3177;SDS011;38141;42.666;23.344;2023-08-07T03:31:06;5.20;;;4.67;;
3177;SDS011;38141;42.666;23.344;2023-08-07T03:33:32;5.57;;;4.50;;
3177;SDS011;38141;42.666;23.344;2023-08-07T03:35:59;6.40;;;5.30;;
3177;SDS011;38141;42.666;23.344;2023-08-07T03:38:25;8.40;;;4.50;;
3177;SDS011;38141;42.666;23.344;2023-08-07T03:40:53;7.07;;;5.40;;
3177;SDS011;38141;42.666;23.344;2023-08-07T03:43:20;7.33;;;4.57;;
3177;SDS011;38141;42.666;23.344;2023-08-07T03:45:46;5.03;;;4.53;;
3177;SDS011;38141;42.666;23.344;2023-08-07T03:48:13;5.73;;;4.60;;
3177;SDS011;38141;42.666;23.344;2023-08-07T03:50:39;5.77;;;5.00;;
3177;SDS011;38141;42.666;23.344;2023-08-07T03:53:06;5.90;;;5.17;;
3177;SDS011;38141;42.666;23.344;2023-08-07T03:55:33;7.13;;;5.53;;
3177;SDS011;38141;42.666;23.344;2023-08-07T03:58:01;5.90;;;5.03;;
3177;SDS011;38141;42.666;23.344;2023-08-07T04:00:28;6.20;;;4.67;;
3177;SDS011;38141;42.666;23.344;2023-08-07T04:02:54;7.50;;;5.00;;
3177;SDS011;38141;42.666;23.344;2023-08-07T04:05:21;5.57;;;4.33;;
3177;SDS011;38141;42.666;23.344;2023-08-07T04:07:47;6.03;;;4.67;;
3177;SDS011;38141;42.666;23.344;2023-08-07T04:10:14;5.63;;;4.57;;
3177;SDS011;38141;42.666;23.344;2023-08-07T04:12:40;5.60;;;4.90;;
3177;SDS011;38141;42.666;23.344;2023-08-07T04:15:09;5.10;;;4.23;;
3177;SDS011;38141;42.666;23.344;2023-08-07T04:17:35;4.90;;;4.40;;
3177;SDS011;38141;42.666;23.344;2023-08-07T04:20:02;7.63;;;4.97;;
3177;SDS011;38141;42.666;23.344;2023-08-07T04:22:30;5.20;;;3.97;;
3177;SDS011;38141;42.666;23.344;2023-08-07T04:24:56;5.10;;;4.17;;
3177;SDS011;38141;42.666;23.344;2023-08-07T04:27:23;4.83;;;3.90;;
3177;SDS011;38141;42.666;23.344;2023-08-07T04:29:49;5.90;;;4.60;;
3177;SDS011;38141;42.666;23.344;2023-08-07T04:32:17;4.73;;;4.20;;
3177;SDS011;38141;42.666;23.344;2023-08-07T04:34:44;4.53;;;4.13;;
3177;SDS011;38141;42.666;23.344;2023-08-07T04:37:10;4.97;;;4.30;;
3177;SDS011;38141;42.666;23.344;2023-08-07T04:39:37;5.50;;;3.83;;
3177;SDS011;38141;42.666;23.344;2023-08-07T04:42:03;5.50;;;4.10;;
3177;SDS011;38141;42.666;23.344;2023-08-07T04:44:30;5.57;;;3.97;;
3177;SDS011;38141;42.666;23.344;2023-08-07T04:46:56;4.17;;;3.77;;
3177;SDS011;38141;42.666;23.344;2023-08-07T04:49:24;6.93;;;4.20;;
3177;SDS011;38141;42.666;23.344;2023-08-07T04:51:51;4.53;;;4.07;;
3177;SDS011;38141;42.666;23.344;2023-08-07T04:54:17;5.00;;;4.20;;
3177;SDS011;38141;42.666;23.344;2023-08-07T04:56:44;4.10;;;3.67;;
3177;SDS011;38141;42.666;23.344;2023-08-07T04:59:10;6.40;;;3.30;;
3177;SDS011;38141;42.666;23.344;2023-08-07T05:01:37;4.77;;;3.77;;
3177;SDS011;38141;42.666;23.344;2023-08-07T05:04:04;5.15;;;2.92;;
3177;SDS011;38141;42.666;23.344;2023-08-07T05:06:32;3.60;;;3.30;;
3177;SDS011;38141;42.666;23.344;2023-08-07T05:08:58;5.43;;;3.30;;
3177;SDS011;38141;42.666;23.344;2023-08-07T05:11:25;5.03;;;3.65;;
3177;SDS011;38141;42.666;23.344;2023-08-07T05:13:51;4.88;;;3.40;;
3177;SDS011;38141;42.666;23.344;2023-08-07T05:16:18;3.40;;;2.47;;
3177;SDS011;38141;42.666;23.344;2023-08-07T05:18:44;4.72;;;2.20;;
3177;SDS011;38141;42.666;23.344;2023-08-07T05:21:11;2.60;;;2.40;;
3177;SDS011;38141;42.666;23.344;2023-08-07T05:23:39;3.20;;;2.67;;
3177;SDS011;38141;42.666;23.344;2023-08-07T05:26:05;3.10;;;2.90;;
3177;SDS011;38141;42.666;23.344;2023-08-07T05:28:32;3.63;;;3.33;;
3177;SDS011;38141;42.666;23.344;2023-08-07T05:30:58;3.15;;;2.85;;
3177;SDS011;38141;42.666;23.344;2023-08-07T05:33:25;3.90;;;3.17;;
3177;SDS011;38141;42.666;23.344;2023-08-07T05:35:51;4.40;;;3.42;;
3177;SDS011;38141;42.666;23.344;2023-08-07T05:38:18;4.22;;;3.10;;
3177;SDS011;38141;42.666;23.344;2023-08-07T05:40:46;3.97;;;3.15;;
3177;SDS011;38141;42.666;23.344;2023-08-07T05:43:13;3.20;;;2.90;;
3177;SDS011;38141;42.666;23.344;2023-08-07T05:45:42;4.00;;;2.80;;
3177;SDS011;38141;42.666;23.344;2023-08-07T05:48:10;3.93;;;3.53;;
3177;SDS011;38141;42.666;23.344;2023-08-07T05:50:36;5.33;;;3.40;;
3177;SDS011;38141;42.666;23.344;2023-08-07T05:53:03;3.40;;;3.10;;
3177;SDS011;38141;42.666;23.344;2023-08-07T05:55:29;3.90;;;3.50;;
3177;SDS011;38141;42.666;23.344;2023-08-07T05:57:57;4.13;;;3.57;;
3177;SDS011;38141;42.666;23.344;2023-08-07T06:00:24;3.63;;;3.33;;
3177;SDS011;38141;42.666;23.344;2023-08-07T06:02:50;3.67;;;3.30;;
3177;SDS011;38141;42.666;23.344;2023-08-07T06:05:17;3.70;;;2.90;;
3177;SDS011;38141;42.666;23.344;2023-08-07T06:07:43;4.18;;;3.20;;
3177;SDS011;38141;42.666;23.344;2023-08-07T06:10:10;4.40;;;2.72;;
3177;SDS011;38141;42.666;23.344;2023-08-07T06:12:36;4.25;;;2.67;;
3177;SDS011;38141;42.666;23.344;2023-08-07T06:15:04;3.72;;;2.50;;
3177;SDS011;38141;42.666;23.344;2023-08-07T06:17:30;2.60;;;2.40;;
3177;SDS011;38141;42.666;23.344;2023-08-07T06:19:57;6.75;;;2.40;;
3177;SDS011;38141;42.666;23.344;2023-08-07T06:22:24;2.50;;;2.30;;
3177;SDS011;38141;42.666;23.344;2023-08-07T06:24:50;2.70;;;2.22;;
3177;SDS011;38141;42.666;23.344;2023-08-07T06:27:17;2.90;;;2.20;;
3177;SDS011;38141;42.666;23.344;2023-08-07T06:29:43;2.50;;;2.30;;
3177;SDS011;38141;42.666;23.344;2023-08-07T06:32:11;3.35;;;2.00;;
3177;SDS011;38141;42.666;23.344;2023-08-07T06:34:39;2.38;;;2.25;;
3177;SDS011;38141;42.666;23.344;2023-08-07T06:37:05;2.55;;;2.17;;
3177;SDS011;38141;42.666;23.344;2023-08-07T06:39:32;2.17;;;1.70;;
3177;SDS011;38141;42.666;23.344;2023-08-07T06:41:58;2.10;;;1.90;;
3177;SDS011;38141;42.666;23.344;2023-08-07T06:44:25;1.98;;;1.75;;
3177;SDS011;38141;42.666;23.344;2023-08-07T06:46:52;2.03;;;1.90;;
3177;SDS011;38141;42.666;23.344;2023-08-07T06:49:20;1.30;;;1.20;;
3177;SDS011;38141;42.666;23.344;2023-08-07T06:51:46;1.20;;;1.20;;
3177;SDS011;38141;42.666;23.344;2023-08-07T06:54:13;1.55;;;1.45;;
3177;SDS011;38141;42.666;23.344;2023-08-07T06:56:39;1.45;;;1.35;;
3177;SDS011;38141;42.666;23.344;2023-08-07T06:59:07;1.75;;;1.65;;
3177;SDS011;38141;42.666;23.344;2023-08-07T07:01:33;2.55;;;1.65;;
3177;SDS011;38141;42.666;23.344;2023-08-07T07:04:00;1.60;;;1.50;;
3177;SDS011;38141;42.666;23.344;2023-08-07T07:06:28;1.40;;;1.30;;
3177;SDS011;38141;42.666;23.344;2023-08-07T07:08:54;1.40;;;1.30;;
3177;SDS011;38141;42.666;23.344;2023-08-07T07:11:21;1.20;;;1.10;;
3177;SDS011;38141;42.666;23.344;2023-08-07T07:13:49;1.70;;;1.23;;
3177;SDS011;38141;42.666;23.344;2023-08-07T07:16:16;1.40;;;1.30;;
3177;SDS011;38141;42.666;23.344;2023-08-07T07:18:42;1.40;;;1.30;;
3177;SDS011;38141;42.666;23.344;2023-08-07T07:21:09;1.30;;;1.20;;
3177;SDS011;38141;42.666;23.344;2023-08-07T07:23:37;2.97;;;1.50;;
3177;SDS011;38141;42.666;23.344;2023-08-07T07:26:03;3.33;;;1.30;;
3177;SDS011;38141;42.666;23.344;2023-08-07T07:28:29;1.90;;;1.45;;
3177;SDS011;38141;42.666;23.344;2023-08-07T07:30:56;2.00;;;1.50;;
3177;SDS011;38141;42.666;23.344;2023-08-07T07:33:23;1.70;;;1.60;;
3177;SDS011;38141;42.666;23.344;2023-08-07T07:35:50;1.92;;;1.50;;
3177;SDS011;38141;42.666;23.344;2023-08-07T07:38:16;1.70;;;1.48;;
3177;SDS011;38141;42.666;23.344;2023-08-07T07:40:44;1.88;;;1.77;;
3177;SDS011;38141;42.666;23.344;2023-08-07T07:43:11;1.70;;;1.60;;
3177;SDS011;38141;42.666;23.344;2023-08-07T07:45:37;2.13;;;1.40;;
3177;SDS011;38141;42.666;23.344;2023-08-07T07:48:04;4.35;;;1.55;;
3177;SDS011;38141;42.666;23.344;2023-08-07T07:50:31;1.70;;;1.60;;
3177;SDS011;38141;42.666;23.344;2023-08-07T07:52:58;2.58;;;2.13;;
3177;SDS011;38141;42.666;23.344;2023-08-07T07:55:24;1.67;;;1.58;;
3177;SDS011;38141;42.666;23.344;2023-08-07T07:57:52;1.60;;;1.50;;
3177;SDS011;38141;42.666;23.344;2023-08-07T08:00:18;3.17;;;2.22;;
3177;SDS011;38141;42.666;23.344;2023-08-07T08:02:45;3.28;;;1.95;;
3177;SDS011;38141;42.666;23.344;2023-08-07T08:05:12;2.10;;;1.90;;
3177;SDS011;38141;42.666;23.344;2023-08-07T08:07:40;2.75;;;1.50;;
3177;SDS011;38141;42.666;23.344;2023-08-07T08:10:07;2.28;;;1.88;;
3177;SDS011;38141;42.666;23.344;2023-08-07T08:12:35;1.92;;;1.83;;
3177;SDS011;38141;42.666;23.344;2023-08-07T08:15:03;2.10;;;1.90;;
3177;SDS011;38141;42.666;23.344;2023-08-07T08:17:30;1.70;;;1.60;;
3177;SDS011;38141;42.666;23.344;2023-08-07T08:19:56;1.90;;;1.70;;
3177;SDS011;38141;42.666;23.344;2023-08-07T08:22:23;1.98;;;1.50;;
3177;SDS011;38141;42.666;23.344;2023-08-07T08:24:49;2.33;;;1.70;;
3177;SDS011;38141;42.666;23.344;2023-08-07T08:27:16;1.77;;;1.67;;
3177;SDS011;38141;42.666;23.344;2023-08-07T08:29:43;2.28;;;1.70;;
3177;SDS011;38141;42.666;23.344;2023-08-07T08:32:12;2.72;;;2.20;;
3177;SDS011;38141;42.666;23.344;2023-08-07T08:34:39;2.22;;;2.03;;
3177;SDS011;38141;42.666;23.344;2023-08-07T08:37:05;2.17;;;1.98;;
3177;SDS011;38141;42.666;23.344;2023-08-07T08:39:32;5.15;;;1.92;;
3177;SDS011;38141;42.666;23.344;2023-08-07T08:41:59;2.92;;;1.70;;
3177;SDS011;38141;42.666;23.344;2023-08-07T08:44:25;2.70;;;1.90;;
3177;SDS011;38141;42.666;23.344;2023-08-07T08:46:52;2.25;;;1.90;;
3177;SDS011;38141;42.666;23.344;2023-08-07T08:49:23;2.28;;;2.08;;
3177;SDS011;38141;42.666;23.344;2023-08-07T08:51:51;1.88;;;1.77;;
3177;SDS011;38141;42.666;23.344;2023-08-07T08:54:18;2.50;;;2.13;;
3177;SDS011;38141;42.666;23.344;2023-08-07T08:56:44;2.00;;;1.77;;
3177;SDS011;38141;42.666;23.344;2023-08-07T08:59:11;2.70;;;2.10;;
3177;SDS011;38141;42.666;23.344;2023-08-07T09:01:38;2.13;;;1.92;;
3177;SDS011;38141;42.666;23.344;2023-08-07T09:04:05;2.38;;;1.77;;
3177;SDS011;38141;42.666;23.344;2023-08-07T09:06:33;2.85;;;1.60;;
3177;SDS011;38141;42.666;23.344;2023-08-07T09:09:00;2.33;;;1.65;;
3177;SDS011;38141;42.666;23.344;2023-08-07T09:11:27;2.05;;;1.83;;
3177;SDS011;38141;42.666;23.344;2023-08-07T09:13:54;2.40;;;1.88;;
3177;SDS011;38141;42.666;23.344;2023-08-07T09:16:21;1.80;;;1.70;;
3177;SDS011;38141;42.666;23.344;2023-08-07T09:18:50;1.70;;;1.60;;
3177;SDS011;38141;42.666;23.344;2023-08-07T09:21:17;1.50;;;1.40;;
3177;SDS011;38141;42.666;23.344;2023-08-07T09:23:45;1.60;;;1.50;;
3177;SDS011;38141;42.666;23.344;2023-08-07T09:26:12;5.57;;;1.80;;
3177;SDS011;38141;42.666;23.344;2023-08-07T09:28:38;1.65;;;1.27;;
3177;SDS011;38141;42.666;23.344;2023-08-07T09:31:05;1.58;;;1.48;;
3177;SDS011;38141;42.666;23.344;2023-08-07T09:33:33;1.75;;;1.45;;
3177;SDS011;38141;42.666;23.344;2023-08-07T09:36:00;1.23;;;1.23;;
3177;SDS011;38141;42.666;23.344;2023-08-07T09:38:28;2.55;;;1.77;;
3177;SDS011;38141;42.666;23.344;2023-08-07T09:40:58;2.05;;;1.63;;
3177;SDS011;38141;42.666;23.344;2023-08-07T09:43:24;1.70;;;1.60;;
3177;SDS011;38141;42.666;23.344;2023-08-07T09:45:51;2.72;;;1.83;;
3177;SDS011;38141;42.666;23.344;2023-08-07T09:48:20;2.03;;;1.52;;
3177;SDS011;38141;42.666;23.344;2023-08-07T09:50:48;1.35;;;1.25;;
3177;SDS011;38141;42.666;23.344;2023-08-07T09:53:15;1.83;;;1.30;;
3177;SDS011;38141;42.666;23.344;2023-08-07T09:55:41;1.50;;;1.40;;
3177;SDS011;38141;42.666;23.344;2023-08-07T09:58:09;1.60;;;1.50;;
3177;SDS011;38141;42.666;23.344;2023-08-07T10:00:38;1.60;;;1.50;;
3177;SDS011;38141;42.666;23.344;2023-08-07T10:03:06;1.88;;;1.48;;
3177;SDS011;38141;42.666;23.344;2023-08-07T10:05:33;2.85;;;1.67;;
3177;SDS011;38141;42.666;23.344;2023-08-07T10:07:59;2.42;;;1.55;;
3177;SDS011;38141;42.666;23.344;2023-08-07T10:10:26;1.60;;;1.50;;
3177;SDS011;38141;42.666;23.344;2023-08-07T10:12:53;1.60;;;1.50;;
3177;SDS011;38141;42.666;23.344;2023-08-07T10:15:21;3.65;;;1.30;;
3177;SDS011;38141;42.666;23.344;2023-08-07T10:17:47;1.40;;;1.30;;
3177;SDS011;38141;42.666;23.344;2023-08-07T10:20:14;1.70;;;1.60;;
3177;SDS011;38141;42.666;23.344;2023-08-07T10:22:40;2.00;;;1.80;;
3177;SDS011;38141;42.666;23.344;2023-08-07T10:25:08;1.70;;;1.42;;
3177;SDS011;38141;42.666;23.344;2023-08-07T10:27:36;1.55;;;1.45;;
3177;SDS011;38141;42.666;23.344;2023-08-07T10:30:04;1.65;;;1.50;;
3177;SDS011;38141;42.666;23.344;2023-08-07T10:32:33;1.77;;;1.50;;
3177;SDS011;38141;42.666;23.344;2023-08-07T10:35:02;2.28;;;1.77;;
3177;SDS011;38141;42.666;23.344;2023-08-07T10:37:32;2.97;;;1.70;;
3177;SDS011;38141;42.666;23.344;2023-08-07T10:40:03;2.35;;;1.55;;
3177;SDS011;38141;42.666;23.344;2023-08-07T10:42:32;2.35;;;1.73;;
3177;SDS011;38141;42.666;23.344;2023-08-07T10:45:00;2.50;;;2.30;;
3177;SDS011;38141;42.666;23.344;2023-08-07T10:47:34;3.10;;;1.90;;
3177;SDS011;38141;42.666;23.344;2023-08-07T10:50:01;2.80;;;1.88;;
3177;SDS011;38141;42.666;23.344;2023-08-07T10:52:27;1.70;;;1.60;;
3177;SDS011;38141;42.666;23.344;2023-08-07T10:54:54;3.53;;;1.80;;
3177;SDS011;38141;42.666;23.344;2023-08-07T10:57:20;1.85;;;1.75;;
3177;SDS011;38141;42.666;23.344;2023-08-07T10:59:51;2.60;;;1.70;;
3177;SDS011;38141;42.666;23.344;2023-08-07T11:02:29;3.90;;;1.67;;
3177;SDS011;38141;42.666;23.344;2023-08-07T11:04:59;2.00;;;1.80;;
3177;SDS011;38141;42.666;23.344;2023-08-07T11:07:26;2.55;;;1.90;;
3177;SDS011;38141;42.666;23.344;2023-08-07T11:09:53;3.10;;;1.77;;
3177;SDS011;38141;42.666;23.344;2023-08-07T11:12:19;3.10;;;1.80;;
3177;SDS011;38141;42.666;23.344;2023-08-07T11:14:46;2.17;;;1.92;;
3177;SDS011;38141;42.666;23.344;2023-08-07T11:17:13;3.33;;;1.73;;
3177;SDS011;38141;42.666;23.344;2023-08-07T11:19:39;3.45;;;2.30;;
3177;SDS011;38141;42.666;23.344;2023-08-07T11:22:07;2.00;;;1.80;;
3177;SDS011;38141;42.666;23.344;2023-08-07T11:24:35;1.75;;;1.65;;
3177;SDS011;38141;42.666;23.344;2023-08-07T11:27:01;2.30;;;1.80;;
3177;SDS011;38141;42.666;23.344;2023-08-07T11:29:28;2.80;;;2.40;;
3177;SDS011;38141;42.666;23.344;2023-08-07T11:31:56;2.33;;;1.67;;
3177;SDS011;38141;42.666;23.344;2023-08-07T11:34:22;3.80;;;2.00;;
3177;SDS011;38141;42.666;23.344;2023-08-07T11:36:50;2.15;;;1.92;;
3177;SDS011;38141;42.666;23.344;2023-08-07T11:39:18;2.00;;;1.90;;
3177;SDS011;38141;42.666;23.344;2023-08-07T11:41:45;3.17;;;1.92;;
3177;SDS011;38141;42.666;23.344;2023-08-07T11:44:12;2.20;;;2.00;;
3177;SDS011;38141;42.666;23.344;2023-08-07T11:46:38;2.10;;;2.00;;
3177;SDS011;38141;42.666;23.344;2023-08-07T11:49:05;3.03;;;1.80;;
3177;SDS011;38141;42.666;23.344;2023-08-07T11:51:31;1.92;;;1.83;;
3177;SDS011;38141;42.666;23.344;2023-08-07T11:53:58;3.08;;;2.00;;
3177;SDS011;38141;42.666;23.344;2023-08-07T11:56:27;2.40;;;2.20;;
3177;SDS011;38141;42.666;23.344;2023-08-07T11:58:53;2.75;;;2.08;;
3177;SDS011;38141;42.666;23.344;2023-08-07T12:01:20;2.50;;;2.30;;
3177;SDS011;38141;42.666;23.344;2023-08-07T12:03:51;2.25;;;1.90;;
3177;SDS011;38141;42.666;23.344;2023-08-07T12:06:18;2.22;;;2.03;;
3177;SDS011;38141;42.666;23.344;2023-08-07T12:08:44;7.60;;;4.93;;
3177;SDS011;38141;42.666;23.344;2023-08-07T12:11:12;2.83;;;2.17;;
3177;SDS011;38141;42.666;23.344;2023-08-07T12:13:40;2.17;;;1.98;;
3177;SDS011;38141;42.666;23.344;2023-08-07T12:16:07;5.15;;;1.98;;
3177;SDS011;38141;42.666;23.344;2023-08-07T12:18:34;2.22;;;2.03;;
3177;SDS011;38141;42.666;23.344;2023-08-07T12:21:03;2.50;;;2.30;;
3177;SDS011;38141;42.666;23.344;2023-08-07T12:23:32;6.10;;;4.78;;
3177;SDS011;38141;42.666;23.344;2023-08-07T12:25:58;8.40;;;5.30;;
3177;SDS011;38141;42.666;23.344;2023-08-07T12:28:25;2.40;;;2.13;;
3177;SDS011;38141;42.666;23.344;2023-08-07T12:30:53;2.28;;;2.08;;
3177;SDS011;38141;42.666;23.344;2023-08-07T12:33:20;2.67;;;2.03;;
3177;SDS011;38141;42.666;23.344;2023-08-07T12:35:46;2.10;;;1.80;;
3177;SDS011;38141;42.666;23.344;2023-08-07T12:38:12;2.30;;;1.83;;
3177;SDS011;38141;42.666;23.344;2023-08-07T12:40:40;3.92;;;2.30;;
3177;SDS011;38141;42.666;23.344;2023-08-07T12:43:06;2.33;;;2.10;;
3177;SDS011;38141;42.666;23.344;2023-08-07T12:45:33;2.13;;;2.03;;
3177;SDS011;38141;42.666;23.344;2023-08-07T12:48:01;3.55;;;1.90;;
3177;SDS011;38141;42.666;23.344;2023-08-07T12:50:27;2.42;;;2.08;;
3177;SDS011;38141;42.666;23.344;2023-08-07T12:52:54;3.33;;;2.13;;
3177;SDS011;38141;42.666;23.344;2023-08-07T12:55:21;2.35;;;2.15;;
3177;SDS011;38141;42.666;23.344;2023-08-07T12:57:47;2.20;;;2.00;;
3177;SDS011;38141;42.666;23.344;2023-08-07T13:00:15;2.20;;;1.98;;
3177;SDS011;38141;42.666;23.344;2023-08-07T13:02:41;4.40;;;2.17;;
3177;SDS011;38141;42.666;23.344;2023-08-07T13:05:10;3.85;;;2.40;;
3177;SDS011;38141;42.666;23.344;2023-08-07T13:07:37;2.30;;;2.10;;
3177;SDS011;38141;42.666;23.344;2023-08-07T13:10:04;3.30;;;2.00;;
3177;SDS011;38141;42.666;23.344;2023-08-07T13:12:31;2.20;;;2.00;;
3177;SDS011;38141;42.666;23.344;2023-08-07T13:14:59;3.58;;;2.10;;
3177;SDS011;38141;42.666;23.344;2023-08-07T13:17:25;3.00;;;2.40;;
3177;SDS011;38141;42.666;23.344;2023-08-07T13:19:52;2.50;;;2.30;;
3177;SDS011;38141;42.666;23.344;2023-08-07T13:22:20;2.30;;;2.10;;
3177;SDS011;38141;42.666;23.344;2023-08-07T13:24:46;3.60;;;2.13;;
3177;SDS011;38141;42.666;23.344;2023-08-07T13:27:13;3.10;;;2.35;;
3177;SDS011;38141;42.666;23.344;2023-08-07T13:29:39;4.80;;;2.42;;
3177;SDS011;38141;42.666;23.344;2023-08-07T13:32:06;3.45;;;2.13;;
3177;SDS011;38141;42.666;23.344;2023-08-07T13:34:34;3.45;;;2.15;;
3177;SDS011;38141;42.666;23.344;2023-08-07T13:37:01;5.80;;;2.70;;
3177;SDS011;38141;42.666;23.344;2023-08-07T13:39:29;8.30;;;2.20;;
3177;SDS011;38141;42.666;23.344;2023-08-07T13:41:56;3.05;;;2.50;;
3177;SDS011;38141;42.666;23.344;2023-08-07T13:44:23;2.78;;;2.03;;
3177;SDS011;38141;42.666;23.344;2023-08-07T13:46:49;2.20;;;2.00;;
3177;SDS011;38141;42.666;23.344;2023-08-07T13:49:16;2.30;;;2.10;;
3177;SDS011;38141;42.666;23.344;2023-08-07T13:51:42;2.65;;;2.13;;
3177;SDS011;38141;42.666;23.344;2023-08-07T13:54:09;2.17;;;1.98;;
3177;SDS011;38141;42.666;23.344;2023-08-07T13:56:37;2.42;;;2.17;;
3177;SDS011;38141;42.666;23.344;2023-08-07T13:59:03;3.17;;;2.30;;
3177;SDS011;38141;42.666;23.344;2023-08-07T14:01:30;2.92;;;2.50;;
3177;SDS011;38141;42.666;23.344;2023-08-07T14:03:58;2.55;;;2.35;;
3177;SDS011;38141;42.666;23.344;2023-08-07T14:06:24;4.55;;;2.40;;
3177;SDS011;38141;42.666;23.344;2023-08-07T14:08:51;2.75;;;2.35;;
3177;SDS011;38141;42.666;23.344;2023-08-07T14:11:17;5.75;;;2.20;;
3177;SDS011;38141;42.666;23.344;2023-08-07T14:13:46;2.85;;;2.55;;
3177;SDS011;38141;42.666;23.344;2023-08-07T14:16:13;3.05;;;2.65;;
3177;SDS011;38141;42.666;23.344;2023-08-07T14:18:39;5.47;;;2.38;;
3177;SDS011;38141;42.666;23.344;2023-08-07T14:21:06;2.83;;;2.53;;
3177;SDS011;38141;42.666;23.344;2023-08-07T14:23:32;2.95;;;2.30;;
3177;SDS011;38141;42.666;23.344;2023-08-07T14:26:17;2.70;;;2.50;;
3177;SDS011;38141;42.666;23.344;2023-08-07T14:28:45;3.33;;;2.53;;
3177;SDS011;38141;42.666;23.344;2023-08-07T14:31:12;3.42;;;3.13;;
3177;SDS011;38141;42.666;23.344;2023-08-07T14:33:39;2.20;;;1.92;;
3177;SDS011;38141;42.666;23.344;2023-08-07T14:36:06;2.78;;;2.45;;
3177;SDS011;38141;42.666;23.344;2023-08-07T14:38:33;2.47;;;2.28;;
3177;SDS011;38141;42.666;23.344;2023-08-07T14:41:00;7.57;;;4.88;;
3177;SDS011;38141;42.666;23.344;2023-08-07T14:43:29;4.80;;;2.35;;
3177;SDS011;38141;42.666;23.344;2023-08-07T14:45:56;15.27;;;8.55;;